sensor_id;sensor_type;location;lat;lon;timestamp;P1;durP1;ratioP1;P2;durP2;ratioP2
9737;SDS011;4908;47.446;13.900;2024-03-22T00:02:10;6.67;;;6.17;;
9737;SDS011;4908;47.446;13.900;2024-03-22T00:04:36;6.70;;;6.10;;
9737;SDS011;4908;47.446;13.900;2024-03-22T00:07:03;7.73;;;7.03;;
9737;SDS011;4908;47.446;13.900;2024-03-22T00:09:29;6.83;;;6.27;;
9737;SDS011;4908;47.446;13.900;2024-03-22T00:11:56;6.80;;;6.20;;
9737;SDS011;4908;47.446;13.900;2024-03-22T00:14:23;7.17;;;6.57;;
9737;SDS011;4908;47.446;13.900;2024-03-22T00:16:51;8.23;;;7.37;;
9737;SDS011;4908;47.446;13.900;2024-03-22T00:19:17;7.07;;;6.43;;
9737;SDS011;4908;47.446;13.900;2024-03-22T00:21:44;7.20;;;6.70;;
9737;SDS011;4908;47.446;13.900;2024-03-22T00:24:10;7.40;;;6.80;;
9737;SDS011;4908;47.446;13.900;2024-03-22T00:26:37;6.90;;;6.40;;
9737;SDS011;4908;47.446;13.900;2024-03-22T00:29:03;7.57;;;6.97;;
9737;SDS011;4908;47.446;13.900;2024-03-22T00:31:30;7.57;;;6.80;;
9737;SDS011;4908;47.446;13.900;2024-03-22T00:33:57;7.33;;;6.70;;
9737;SDS011;4908;47.446;13.900;2024-03-22T00:36:24;7.40;;;6.80;;
9737;SDS011;4908;47.446;13.900;2024-03-22T00:38:50;6.67;;;6.17;;
9737;SDS011;4908;47.446;13.900;2024-03-22T00:41:17;7.10;;;6.50;;
9737;SDS011;4908;47.446;13.900;2024-03-22T00:43:43;7.73;;;7.13;;
9737;SDS011;4908;47.446;13.900;2024-03-22T00:46:10;6.60;;;6.10;;
9737;SDS011;4908;47.446;13.900;2024-03-22T00:48:37;6.80;;;6.20;;
9737;SDS011;4908;47.446;13.900;2024-03-22T00:51:05;7.03;;;6.40;;
9737;SDS011;4908;47.446;13.900;2024-03-22T00:53:32;6.50;;;6.00;;
9737;SDS011;4908;47.446;13.900;2024-03-22T00:55:59;6.77;;;6.27;;
9737;SDS011;4908;47.446;13.900;2024-03-22T00:58:26;7.50;;;6.80;;
9737;SDS011;4908;47.446;13.900;2024-03-22T01:00:53;8.47;;;7.77;;
9737;SDS011;4908;47.446;13.900;2024-03-22T01:03:19;7.20;;;6.50;;
9737;SDS011;4908;47.446;13.900;2024-03-22T01:05:46;7.10;;;6.50;;
9737;SDS011;4908;47.446;13.900;2024-03-22T01:08:14;7.23;;;6.63;;
9737;SDS011;4908;47.446;13.900;2024-03-22T01:10:41;8.37;;;6.87;;
9737;SDS011;4908;47.446;13.900;2024-03-22T01:13:07;7.40;;;6.80;;
9737;SDS011;4908;47.446;13.900;2024-03-22T01:15:34;7.47;;;6.77;;
9737;SDS011;4908;47.446;13.900;2024-03-22T01:18:00;7.13;;;6.53;;
9737;SDS011;4908;47.446;13.900;2024-03-22T01:20:28;7.53;;;6.93;;
9737;SDS011;4908;47.446;13.900;2024-03-22T01:22:54;6.80;;;6.27;;
9737;SDS011;4908;47.446;13.900;2024-03-22T01:25:22;7.60;;;6.97;;
9737;SDS011;4908;47.446;13.900;2024-03-22T01:27:48;7.57;;;6.97;;
9737;SDS011;4908;47.446;13.900;2024-03-22T01:30:15;7.43;;;6.83;;
9737;SDS011;4908;47.446;13.900;2024-03-22T01:32:41;7.40;;;6.80;;
9737;SDS011;4908;47.446;13.900;2024-03-22T01:35:09;7.40;;;6.80;;
9737;SDS011;4908;47.446;13.900;2024-03-22T01:37:35;7.17;;;6.57;;
9737;SDS011;4908;47.446;13.900;2024-03-22T01:40:02;6.93;;;6.33;;
9737;SDS011;4908;47.446;13.900;2024-03-22T01:42:31;6.80;;;6.20;;
9737;SDS011;4908;47.446;13.900;2024-03-22T01:44:58;6.70;;;6.20;;
9737;SDS011;4908;47.446;13.900;2024-03-22T01:47:24;7.83;;;7.20;;
9737;SDS011;4908;47.446;13.900;2024-03-22T01:49:52;7.87;;;7.00;;
9737;SDS011;4908;47.446;13.900;2024-03-22T01:52:20;8.27;;;7.57;;
9737;SDS011;4908;47.446;13.900;2024-03-22T01:54:47;8.47;;;7.67;;
9737;SDS011;4908;47.446;13.900;2024-03-22T01:57:14;7.90;;;7.20;;
9737;SDS011;4908;47.446;13.900;2024-03-22T01:59:43;7.73;;;7.10;;
9737;SDS011;4908;47.446;13.900;2024-03-22T02:02:11;7.43;;;6.83;;
9737;SDS011;4908;47.446;13.900;2024-03-22T02:04:39;7.70;;;7.10;;
9737;SDS011;4908;47.446;13.900;2024-03-22T02:07:05;8.17;;;7.57;;
9737;SDS011;4908;47.446;13.900;2024-03-22T02:09:32;7.97;;;7.27;;
9737;SDS011;4908;47.446;13.900;2024-03-22T02:11:58;8.37;;;7.53;;
9737;SDS011;4908;47.446;13.900;2024-03-22T02:14:25;8.00;;;7.30;;
9737;SDS011;4908;47.446;13.900;2024-03-22T02:16:53;7.83;;;7.13;;
9737;SDS011;4908;47.446;13.900;2024-03-22T02:19:20;8.03;;;7.33;;
9737;SDS011;4908;47.446;13.900;2024-03-22T02:21:46;7.43;;;6.83;;
9737;SDS011;4908;47.446;13.900;2024-03-22T02:24:15;7.90;;;7.30;;
9737;SDS011;4908;47.446;13.900;2024-03-22T02:26:41;8.90;;;8.20;;
9737;SDS011;4908;47.446;13.900;2024-03-22T02:29:08;8.73;;;7.83;;
9737;SDS011;4908;47.446;13.900;2024-03-22T02:31:34;9.17;;;8.37;;
9737;SDS011;4908;47.446;13.900;2024-03-22T02:34:01;8.90;;;8.00;;
9737;SDS011;4908;47.446;13.900;2024-03-22T02:36:27;8.70;;;7.83;;
9737;SDS011;4908;47.446;13.900;2024-03-22T02:38:55;8.80;;;8.03;;
9737;SDS011;4908;47.446;13.900;2024-03-22T02:41:22;8.10;;;7.33;;
9737;SDS011;4908;47.446;13.900;2024-03-22T02:43:49;8.33;;;7.63;;
9737;SDS011;4908;47.446;13.900;2024-03-22T02:46:15;8.57;;;7.87;;
9737;SDS011;4908;47.446;13.900;2024-03-22T02:48:43;8.60;;;7.90;;
9737;SDS011;4908;47.446;13.900;2024-03-22T02:51:09;8.63;;;7.93;;
9737;SDS011;4908;47.446;13.900;2024-03-22T02:53:36;9.33;;;8.43;;
9737;SDS011;4908;47.446;13.900;2024-03-22T02:56:02;9.00;;;8.30;;
9737;SDS011;4908;47.446;13.900;2024-03-22T02:58:31;8.10;;;7.30;;
9737;SDS011;4908;47.446;13.900;2024-03-22T03:00:57;7.90;;;7.30;;
9737;SDS011;4908;47.446;13.900;2024-03-22T03:03:24;11.30;;;10.27;;
9737;SDS011;4908;47.446;13.900;2024-03-22T03:05:50;10.77;;;9.67;;
9737;SDS011;4908;47.446;13.900;2024-03-22T03:08:17;11.30;;;10.03;;
9737;SDS011;4908;47.446;13.900;2024-03-22T03:10:43;11.47;;;10.37;;
9737;SDS011;4908;47.446;13.900;2024-03-22T03:13:10;11.47;;;10.27;;
9737;SDS011;4908;47.446;13.900;2024-03-22T03:15:38;10.30;;;9.37;;
9737;SDS011;4908;47.446;13.900;2024-03-22T03:18:05;10.37;;;9.37;;
9737;SDS011;4908;47.446;13.900;2024-03-22T03:20:31;11.23;;;9.13;;
9737;SDS011;4908;47.446;13.900;2024-03-22T03:22:59;10.47;;;9.47;;
9737;SDS011;4908;47.446;13.900;2024-03-22T03:25:25;9.93;;;8.97;;
9737;SDS011;4908;47.446;13.900;2024-03-22T03:27:52;9.63;;;8.80;;
9737;SDS011;4908;47.446;13.900;2024-03-22T03:30:18;9.40;;;8.50;;
9737;SDS011;4908;47.446;13.900;2024-03-22T03:32:47;10.23;;;9.20;;
9737;SDS011;4908;47.446;13.900;2024-03-22T03:35:13;9.43;;;8.60;;
9737;SDS011;4908;47.446;13.900;2024-03-22T03:37:40;10.43;;;9.43;;
9737;SDS011;4908;47.446;13.900;2024-03-22T03:40:07;9.93;;;8.93;;
9737;SDS011;4908;47.446;13.900;2024-03-22T03:42:35;9.13;;;8.33;;
9737;SDS011;4908;47.446;13.900;2024-03-22T03:45:01;11.80;;;10.70;;
9737;SDS011;4908;47.446;13.900;2024-03-22T03:47:28;11.93;;;9.90;;
9737;SDS011;4908;47.446;13.900;2024-03-22T03:49:55;11.37;;;10.27;;
9737;SDS011;4908;47.446;13.900;2024-03-22T03:52:23;10.40;;;9.50;;
9737;SDS011;4908;47.446;13.900;2024-03-22T03:54:49;9.90;;;9.00;;
9737;SDS011;4908;47.446;13.900;2024-03-22T03:57:16;10.20;;;9.20;;
9737;SDS011;4908;47.446;13.900;2024-03-22T03:59:42;11.83;;;9.93;;
9737;SDS011;4908;47.446;13.900;2024-03-22T04:02:09;10.87;;;9.87;;
9737;SDS011;4908;47.446;13.900;2024-03-22T04:04:35;9.97;;;8.97;;
9737;SDS011;4908;47.446;13.900;2024-03-22T04:07:04;9.83;;;8.93;;
9737;SDS011;4908;47.446;13.900;2024-03-22T04:09:30;9.50;;;8.50;;
9737;SDS011;4908;47.446;13.900;2024-03-22T04:11:58;9.80;;;8.90;;
9737;SDS011;4908;47.446;13.900;2024-03-22T04:14:24;9.27;;;8.37;;
9737;SDS011;4908;47.446;13.900;2024-03-22T04:16:51;11.03;;;8.97;;
9737;SDS011;4908;47.446;13.900;2024-03-22T04:19:19;9.07;;;8.23;;
9737;SDS011;4908;47.446;13.900;2024-03-22T04:21:47;8.90;;;8.10;;
9737;SDS011;4908;47.446;13.900;2024-03-22T04:24:15;9.47;;;8.57;;
9737;SDS011;4908;47.446;13.900;2024-03-22T04:26:43;8.33;;;7.53;;
9737;SDS011;4908;47.446;13.900;2024-03-22T04:29:09;9.37;;;8.37;;
9737;SDS011;4908;47.446;13.900;2024-03-22T04:31:36;10.73;;;9.23;;
9737;SDS011;4908;47.446;13.900;2024-03-22T04:34:02;13.37;;;12.07;;
9737;SDS011;4908;47.446;13.900;2024-03-22T04:36:30;7.80;;;7.07;;
9737;SDS011;4908;47.446;13.900;2024-03-22T04:38:57;11.33;;;9.20;;
9737;SDS011;4908;47.446;13.900;2024-03-22T04:41:25;10.00;;;9.00;;
9737;SDS011;4908;47.446;13.900;2024-03-22T04:43:52;8.47;;;7.67;;
9737;SDS011;4908;47.446;13.900;2024-03-22T04:46:19;8.40;;;7.30;;
9737;SDS011;4908;47.446;13.900;2024-03-22T04:48:46;10.30;;;7.47;;
9737;SDS011;4908;47.446;13.900;2024-03-22T04:51:12;7.33;;;6.63;;
9737;SDS011;4908;47.446;13.900;2024-03-22T04:53:39;7.90;;;7.10;;
9737;SDS011;4908;47.446;13.900;2024-03-22T04:56:05;10.70;;;8.30;;
9737;SDS011;4908;47.446;13.900;2024-03-22T04:58:36;9.27;;;7.70;;
9737;SDS011;4908;47.446;13.900;2024-03-22T05:01:02;9.17;;;8.27;;
9737;SDS011;4908;47.446;13.900;2024-03-22T05:03:29;7.77;;;6.97;;
9737;SDS011;4908;47.446;13.900;2024-03-22T05:05:55;7.60;;;6.87;;
9737;SDS011;4908;47.446;13.900;2024-03-22T05:08:23;7.20;;;6.50;;
9737;SDS011;4908;47.446;13.900;2024-03-22T05:10:49;6.47;;;5.63;;
9737;SDS011;4908;47.446;13.900;2024-03-22T05:13:16;7.30;;;6.13;;
9737;SDS011;4908;47.446;13.900;2024-03-22T05:15:44;6.70;;;6.10;;
9737;SDS011;4908;47.446;13.900;2024-03-22T05:18:11;6.97;;;6.27;;
9737;SDS011;4908;47.446;13.900;2024-03-22T05:20:37;6.40;;;5.73;;
9737;SDS011;4908;47.446;13.900;2024-03-22T05:23:04;6.60;;;6.00;;
9737;SDS011;4908;47.446;13.900;2024-03-22T05:25:30;7.10;;;6.40;;
9737;SDS011;4908;47.446;13.900;2024-03-22T05:27:58;7.93;;;7.13;;
9737;SDS011;4908;47.446;13.900;2024-03-22T05:30:24;7.97;;;6.90;;
9737;SDS011;4908;47.446;13.900;2024-03-22T05:32:52;9.87;;;7.03;;
9737;SDS011;4908;47.446;13.900;2024-03-22T05:35:18;7.47;;;6.70;;
9737;SDS011;4908;47.446;13.900;2024-03-22T05:37:46;10.43;;;7.80;;
9737;SDS011;4908;47.446;13.900;2024-03-22T05:40:13;8.37;;;7.57;;
9737;SDS011;4908;47.446;13.900;2024-03-22T05:42:41;9.00;;;8.13;;
9737;SDS011;4908;47.446;13.900;2024-03-22T05:45:07;8.90;;;8.00;;
9737;SDS011;4908;47.446;13.900;2024-03-22T05:47:34;9.63;;;7.87;;
9737;SDS011;4908;47.446;13.900;2024-03-22T05:50:04;8.00;;;7.30;;
9737;SDS011;4908;47.446;13.900;2024-03-22T05:52:33;10.10;;;7.63;;
9737;SDS011;4908;47.446;13.900;2024-03-22T05:54:59;10.77;;;8.93;;
9737;SDS011;4908;47.446;13.900;2024-03-22T05:57:27;13.67;;;12.07;;
9737;SDS011;4908;47.446;13.900;2024-03-22T05:59:53;17.50;;;15.33;;
9737;SDS011;4908;47.446;13.900;2024-03-22T06:02:21;17.03;;;14.40;;
9737;SDS011;4908;47.446;13.900;2024-03-22T06:04:47;10.10;;;9.10;;
9737;SDS011;4908;47.446;13.900;2024-03-22T06:07:15;10.00;;;9.00;;
9737;SDS011;4908;47.446;13.900;2024-03-22T06:09:42;11.50;;;9.53;;
9737;SDS011;4908;47.446;13.900;2024-03-22T06:12:12;9.43;;;8.57;;
9737;SDS011;4908;47.446;13.900;2024-03-22T06:14:39;12.20;;;9.83;;
9737;SDS011;4908;47.446;13.900;2024-03-22T06:17:06;11.60;;;10.40;;
9737;SDS011;4908;47.446;13.900;2024-03-22T06:19:32;13.90;;;11.10;;
9737;SDS011;4908;47.446;13.900;2024-03-22T06:21:59;12.10;;;10.53;;
9737;SDS011;4908;47.446;13.900;2024-03-22T06:24:27;12.83;;;11.63;;
9737;SDS011;4908;47.446;13.900;2024-03-22T06:26:55;12.87;;;11.30;;
9737;SDS011;4908;47.446;13.900;2024-03-22T06:29:21;14.10;;;12.60;;
9737;SDS011;4908;47.446;13.900;2024-03-22T06:31:48;13.37;;;11.57;;
9737;SDS011;4908;47.446;13.900;2024-03-22T06:34:15;13.70;;;11.43;;
9737;SDS011;4908;47.446;13.900;2024-03-22T06:36:42;13.93;;;11.70;;
9737;SDS011;4908;47.446;13.900;2024-03-22T06:39:08;14.50;;;12.03;;
9737;SDS011;4908;47.446;13.900;2024-03-22T06:41:37;16.70;;;14.23;;
9737;SDS011;4908;47.446;13.900;2024-03-22T06:44:03;22.53;;;18.83;;
9737;SDS011;4908;47.446;13.900;2024-03-22T06:46:31;25.17;;;20.93;;
9737;SDS011;4908;47.446;13.900;2024-03-22T06:48:57;24.57;;;20.83;;
9737;SDS011;4908;47.446;13.900;2024-03-22T06:51:25;23.07;;;18.37;;
9737;SDS011;4908;47.446;13.900;2024-03-22T06:53:51;23.97;;;18.83;;
9737;SDS011;4908;47.446;13.900;2024-03-22T06:56:18;75.40;;;56.40;;
9737;SDS011;4908;47.446;13.900;2024-03-22T06:58:46;28.17;;;23.87;;
9737;SDS011;4908;47.446;13.900;2024-03-22T07:01:13;19.77;;;16.07;;
9737;SDS011;4908;47.446;13.900;2024-03-22T07:03:39;17.40;;;14.97;;
9737;SDS011;4908;47.446;13.900;2024-03-22T07:06:06;17.63;;;15.00;;
9737;SDS011;4908;47.446;13.900;2024-03-22T07:08:34;17.60;;;15.30;;
9737;SDS011;4908;47.446;13.900;2024-03-22T07:11:04;18.13;;;16.23;;
9737;SDS011;4908;47.446;13.900;2024-03-22T07:13:31;20.03;;;16.40;;
9737;SDS011;4908;47.446;13.900;2024-03-22T07:16:00;20.43;;;16.93;;
9737;SDS011;4908;47.446;13.900;2024-03-22T07:18:26;16.87;;;14.53;;
9737;SDS011;4908;47.446;13.900;2024-03-22T07:20:53;17.07;;;15.30;;
9737;SDS011;4908;47.446;13.900;2024-03-22T07:23:19;16.83;;;15.20;;
9737;SDS011;4908;47.446;13.900;2024-03-22T07:25:46;17.60;;;15.77;;
9737;SDS011;4908;47.446;13.900;2024-03-22T07:28:13;14.43;;;13.03;;
9737;SDS011;4908;47.446;13.900;2024-03-22T07:30:41;15.00;;;13.60;;
9737;SDS011;4908;47.446;13.900;2024-03-22T07:33:10;13.20;;;11.93;;
9737;SDS011;4908;47.446;13.900;2024-03-22T07:35:38;13.73;;;12.43;;
9737;SDS011;4908;47.446;13.900;2024-03-22T07:38:04;13.90;;;12.67;;
9737;SDS011;4908;47.446;13.900;2024-03-22T07:40:32;12.97;;;11.67;;
9737;SDS011;4908;47.446;13.900;2024-03-22T07:42:58;12.50;;;11.40;;
9737;SDS011;4908;47.446;13.900;2024-03-22T07:45:31;12.20;;;11.10;;
9737;SDS011;4908;47.446;13.900;2024-03-22T07:47:57;11.40;;;10.40;;
9737;SDS011;4908;47.446;13.900;2024-03-22T07:50:26;12.03;;;10.90;;
9737;SDS011;4908;47.446;13.900;2024-03-22T07:52:52;12.63;;;11.40;;
9737;SDS011;4908;47.446;13.900;2024-03-22T07:55:19;12.00;;;10.90;;
9737;SDS011;4908;47.446;13.900;2024-03-22T07:57:45;11.50;;;10.50;;
9737;SDS011;4908;47.446;13.900;2024-03-22T08:00:13;11.37;;;10.37;;
9737;SDS011;4908;47.446;13.900;2024-03-22T08:02:39;12.00;;;10.90;;
9737;SDS011;4908;47.446;13.900;2024-03-22T08:05:08;11.13;;;10.13;;
9737;SDS011;4908;47.446;13.900;2024-03-22T08:07:36;11.87;;;10.87;;
9737;SDS011;4908;47.446;13.900;2024-03-22T08:10:03;11.20;;;10.20;;
9737;SDS011;4908;47.446;13.900;2024-03-22T08:12:29;10.90;;;9.90;;
9737;SDS011;4908;47.446;13.900;2024-03-22T08:14:57;10.07;;;9.17;;
9737;SDS011;4908;47.446;13.900;2024-03-22T08:17:23;11.17;;;10.17;;
9737;SDS011;4908;47.446;13.900;2024-03-22T08:19:50;11.20;;;10.20;;
9737;SDS011;4908;47.446;13.900;2024-03-22T08:22:16;10.50;;;9.50;;
9737;SDS011;4908;47.446;13.900;2024-03-22T08:24:45;9.30;;;8.43;;
9737;SDS011;4908;47.446;13.900;2024-03-22T08:27:11;9.77;;;8.87;;
9737;SDS011;4908;47.446;13.900;2024-03-22T08:29:39;11.27;;;7.80;;
9737;SDS011;4908;47.446;13.900;2024-03-22T08:32:06;12.20;;;11.00;;
9737;SDS011;4908;47.446;13.900;2024-03-22T08:34:34;9.93;;;9.13;;
9737;SDS011;4908;47.446;13.900;2024-03-22T08:37:00;10.27;;;9.27;;
9737;SDS011;4908;47.446;13.900;2024-03-22T08:39:28;9.50;;;8.70;;
9737;SDS011;4908;47.446;13.900;2024-03-22T08:41:56;9.40;;;8.53;;
9737;SDS011;4908;47.446;13.900;2024-03-22T08:44:23;9.00;;;8.20;;
9737;SDS011;4908;47.446;13.900;2024-03-22T08:46:50;9.27;;;8.57;;
9737;SDS011;4908;47.446;13.900;2024-03-22T08:49:17;8.80;;;8.00;;
9737;SDS011;4908;47.446;13.900;2024-03-22T08:51:44;8.23;;;7.53;;
9737;SDS011;4908;47.446;13.900;2024-03-22T08:54:13;8.17;;;7.37;;
9737;SDS011;4908;47.446;13.900;2024-03-22T08:56:39;8.93;;;8.13;;
9737;SDS011;4908;47.446;13.900;2024-03-22T08:59:08;8.27;;;7.57;;
9737;SDS011;4908;47.446;13.900;2024-03-22T09:01:35;8.00;;;7.30;;
9737;SDS011;4908;47.446;13.900;2024-03-22T09:04:02;7.70;;;7.10;;
9737;SDS011;4908;47.446;13.900;2024-03-22T09:06:29;8.03;;;7.33;;
9737;SDS011;4908;47.446;13.900;2024-03-22T09:08:56;8.53;;;7.63;;
9737;SDS011;4908;47.446;13.900;2024-03-22T09:11:23;7.77;;;7.07;;
9737;SDS011;4908;47.446;13.900;2024-03-22T09:13:51;8.00;;;7.30;;
9737;SDS011;4908;47.446;13.900;2024-03-22T09:16:19;7.80;;;7.13;;
9737;SDS011;4908;47.446;13.900;2024-03-22T09:18:46;7.00;;;6.30;;
9737;SDS011;4908;47.446;13.900;2024-03-22T09:21:13;7.73;;;7.13;;
9737;SDS011;4908;47.446;13.900;2024-03-22T09:23:40;7.23;;;6.63;;
9737;SDS011;4908;47.446;13.900;2024-03-22T09:26:06;8.23;;;6.67;;
9737;SDS011;4908;47.446;13.900;2024-03-22T09:28:33;7.60;;;6.80;;
9737;SDS011;4908;47.446;13.900;2024-03-22T09:31:03;7.30;;;6.60;;
9737;SDS011;4908;47.446;13.900;2024-03-22T09:33:32;6.50;;;6.00;;
9737;SDS011;4908;47.446;13.900;2024-03-22T09:35:58;7.13;;;6.63;;
9737;SDS011;4908;47.446;13.900;2024-03-22T09:38:25;6.70;;;6.13;;
9737;SDS011;4908;47.446;13.900;2024-03-22T09:40:51;6.13;;;5.73;;
9737;SDS011;4908;47.446;13.900;2024-03-22T09:43:19;6.57;;;6.07;;
9737;SDS011;4908;47.446;13.900;2024-03-22T09:45:46;6.63;;;6.07;;
9737;SDS011;4908;47.446;13.900;2024-03-22T09:48:14;6.43;;;5.90;;
9737;SDS011;4908;47.446;13.900;2024-03-22T09:50:42;7.53;;;6.10;;
9737;SDS011;4908;47.446;13.900;2024-03-22T09:53:10;6.27;;;5.77;;
9737;SDS011;4908;47.446;13.900;2024-03-22T09:55:37;6.23;;;5.57;;
9737;SDS011;4908;47.446;13.900;2024-03-22T09:58:08;8.47;;;6.17;;
9737;SDS011;4908;47.446;13.900;2024-03-22T10:00:35;5.40;;;5.10;;
9737;SDS011;4908;47.446;13.900;2024-03-22T10:03:02;6.23;;;5.70;;
9737;SDS011;4908;47.446;13.900;2024-03-22T10:05:29;8.33;;;6.03;;
9737;SDS011;4908;47.446;13.900;2024-03-22T10:07:58;5.83;;;5.33;;
9737;SDS011;4908;47.446;13.900;2024-03-22T10:10:24;9.63;;;7.67;;
9737;SDS011;4908;47.446;13.900;2024-03-22T10:12:52;7.20;;;6.50;;
9737;SDS011;4908;47.446;13.900;2024-03-22T10:15:18;6.33;;;5.80;;
9737;SDS011;4908;47.446;13.900;2024-03-22T10:17:46;6.47;;;5.83;;
9737;SDS011;4908;47.446;13.900;2024-03-22T10:20:13;6.37;;;5.80;;
9737;SDS011;4908;47.446;13.900;2024-03-22T10:22:43;8.17;;;6.00;;
9737;SDS011;4908;47.446;13.900;2024-03-22T10:25:14;6.17;;;5.60;;
9737;SDS011;4908;47.446;13.900;2024-03-22T10:27:41;5.93;;;5.47;;
9737;SDS011;4908;47.446;13.900;2024-03-22T10:30:08;9.90;;;5.47;;
9737;SDS011;4908;47.446;13.900;2024-03-22T10:32:36;5.83;;;5.33;;
9737;SDS011;4908;47.446;13.900;2024-03-22T10:35:02;6.80;;;5.67;;
9737;SDS011;4908;47.446;13.900;2024-03-22T10:37:32;7.70;;;4.77;;
9737;SDS011;4908;47.446;13.900;2024-03-22T10:39:59;3.60;;;2.50;;
9737;SDS011;4908;47.446;13.900;2024-03-22T10:42:34;4.30;;;3.90;;
9737;SDS011;4908;47.446;13.900;2024-03-22T10:45:00;7.30;;;3.30;;
9737;SDS011;4908;47.446;13.900;2024-03-22T10:47:29;2.10;;;1.90;;
9737;SDS011;4908;47.446;13.900;2024-03-22T10:49:56;2.43;;;2.23;;
9737;SDS011;4908;47.446;13.900;2024-03-22T10:52:31;3.40;;;2.00;;
9737;SDS011;4908;47.446;13.900;2024-03-22T10:55:00;2.63;;;2.20;;
9737;SDS011;4908;47.446;13.900;2024-03-22T10:57:29;2.47;;;2.23;;
9737;SDS011;4908;47.446;13.900;2024-03-22T10:59:57;1.90;;;1.80;;
9737;SDS011;4908;47.446;13.900;2024-03-22T11:02:25;2.03;;;1.83;;
9737;SDS011;4908;47.446;13.900;2024-03-22T11:04:54;3.53;;;1.90;;
9737;SDS011;4908;47.446;13.900;2024-03-22T11:07:28;3.40;;;1.80;;
9737;SDS011;4908;47.446;13.900;2024-03-22T11:09:55;2.40;;;1.67;;
9737;SDS011;4908;47.446;13.900;2024-03-22T11:12:24;4.30;;;1.70;;
9737;SDS011;4908;47.446;13.900;2024-03-22T11:14:51;1.50;;;1.40;;
9737;SDS011;4908;47.446;13.900;2024-03-22T11:17:20;3.30;;;1.70;;
9737;SDS011;4908;47.446;13.900;2024-03-22T11:19:50;2.10;;;1.80;;
9737;SDS011;4908;47.446;13.900;2024-03-22T11:22:17;1.63;;;1.53;;
9737;SDS011;4908;47.446;13.900;2024-03-22T11:24:43;1.60;;;1.53;;
9737;SDS011;4908;47.446;13.900;2024-03-22T11:27:10;2.03;;;1.80;;
9737;SDS011;4908;47.446;13.900;2024-03-22T11:29:36;1.70;;;1.60;;
9737;SDS011;4908;47.446;13.900;2024-03-22T11:32:06;2.10;;;1.80;;
9737;SDS011;4908;47.446;13.900;2024-03-22T11:34:35;1.70;;;1.60;;
9737;SDS011;4908;47.446;13.900;2024-03-22T11:37:03;1.73;;;1.67;;
9737;SDS011;4908;47.446;13.900;2024-03-22T11:39:32;2.50;;;1.27;;
9737;SDS011;4908;47.446;13.900;2024-03-22T11:42:01;1.60;;;1.50;;
9737;SDS011;4908;47.446;13.900;2024-03-22T11:44:29;2.90;;;1.47;;
9737;SDS011;4908;47.446;13.900;2024-03-22T11:46:58;2.63;;;1.30;;
9737;SDS011;4908;47.446;13.900;2024-03-22T11:49:25;1.50;;;1.40;;
9737;SDS011;4908;47.446;13.900;2024-03-22T11:51:54;1.43;;;1.37;;
9737;SDS011;4908;47.446;13.900;2024-03-22T11:54:21;2.60;;;1.53;;
9737;SDS011;4908;47.446;13.900;2024-03-22T11:56:49;1.70;;;1.60;;
9737;SDS011;4908;47.446;13.900;2024-03-22T11:59:18;1.53;;;1.40;;
9737;SDS011;4908;47.446;13.900;2024-03-22T12:01:46;1.10;;;1.10;;
9737;SDS011;4908;47.446;13.900;2024-03-22T12:04:12;1.73;;;1.10;;
9737;SDS011;4908;47.446;13.900;2024-03-22T12:06:41;1.30;;;1.30;;
9737;SDS011;4908;47.446;13.900;2024-03-22T12:09:09;1.50;;;1.13;;
9737;SDS011;4908;47.446;13.900;2024-03-22T12:11:37;3.17;;;1.13;;
9737;SDS011;4908;47.446;13.900;2024-03-22T12:14:04;1.77;;;1.30;;
9737;SDS011;4908;47.446;13.900;2024-03-22T12:16:31;1.77;;;1.23;;
9737;SDS011;4908;47.446;13.900;2024-03-22T12:18:57;1.93;;;1.20;;
9737;SDS011;4908;47.446;13.900;2024-03-22T12:21:24;1.13;;;1.10;;
9737;SDS011;4908;47.446;13.900;2024-03-22T12:23:50;1.23;;;1.03;;
9737;SDS011;4908;47.446;13.900;2024-03-22T12:26:19;1.30;;;1.20;;
9737;SDS011;4908;47.446;13.900;2024-03-22T12:28:45;1.27;;;1.10;;
9737;SDS011;4908;47.446;13.900;2024-03-22T12:31:12;1.70;;;1.07;;
9737;SDS011;4908;47.446;13.900;2024-03-22T12:33:38;3.03;;;1.30;;
9737;SDS011;4908;47.446;13.900;2024-03-22T12:36:06;1.13;;;0.93;;
9737;SDS011;4908;47.446;13.900;2024-03-22T12:38:32;0.77;;;0.77;;
9737;SDS011;4908;47.446;13.900;2024-03-22T12:40:59;1.13;;;0.90;;
9737;SDS011;4908;47.446;13.900;2024-03-22T12:43:27;1.10;;;1.00;;
9737;SDS011;4908;47.446;13.900;2024-03-22T12:45:54;1.10;;;1.07;;
9737;SDS011;4908;47.446;13.900;2024-03-22T12:48:20;1.00;;;1.00;;
9737;SDS011;4908;47.446;13.900;2024-03-22T12:50:47;1.10;;;0.83;;
9737;SDS011;4908;47.446;13.900;2024-03-22T12:53:13;2.10;;;1.10;;
9737;SDS011;4908;47.446;13.900;2024-03-22T12:55:41;0.97;;;0.80;;
9737;SDS011;4908;47.446;13.900;2024-03-22T12:58:07;0.80;;;0.80;;
9737;SDS011;4908;47.446;13.900;2024-03-22T13:00:35;1.00;;;1.00;;
9737;SDS011;4908;47.446;13.900;2024-03-22T13:03:01;2.10;;;1.87;;
9737;SDS011;4908;47.446;13.900;2024-03-22T13:05:29;1.30;;;1.13;;
9737;SDS011;4908;47.446;13.900;2024-03-22T13:07:56;2.73;;;2.53;;
9737;SDS011;4908;47.446;13.900;2024-03-22T13:10:23;1.30;;;0.93;;
9737;SDS011;4908;47.446;13.900;2024-03-22T13:12:49;1.30;;;1.20;;
9737;SDS011;4908;47.446;13.900;2024-03-22T13:15:16;2.17;;;2.07;;
9737;SDS011;4908;47.446;13.900;2024-03-22T13:17:44;5.73;;;5.17;;
9737;SDS011;4908;47.446;13.900;2024-03-22T13:20:11;1.58;;;1.30;;
9737;SDS011;4908;47.446;13.900;2024-03-22T13:22:40;7.28;;;4.78;;
9737;SDS011;4908;47.446;13.900;2024-03-22T13:25:07;5.18;;;4.65;;
9737;SDS011;4908;47.446;13.900;2024-03-22T13:27:36;1.02;;;0.90;;
9737;SDS011;4908;47.446;13.900;2024-03-22T13:30:05;9.73;;;8.85;;
9737;SDS011;4908;47.446;13.900;2024-03-22T13:32:35;1.88;;;1.77;;
9737;SDS011;4908;47.446;13.900;2024-03-22T13:35:04;3.15;;;1.80;;
9737;SDS011;4908;47.446;13.900;2024-03-22T13:37:31;4.07;;;3.78;;
9737;SDS011;4908;47.446;13.900;2024-03-22T13:39:58;0.70;;;0.70;;
9737;SDS011;4908;47.446;13.900;2024-03-22T13:42:25;0.90;;;0.90;;
9737;SDS011;4908;47.446;13.900;2024-03-22T13:44:53;0.73;;;0.73;;
9737;SDS011;4908;47.446;13.900;2024-03-22T13:47:19;2.15;;;0.80;;
9737;SDS011;4908;47.446;13.900;2024-03-22T13:49:46;1.83;;;0.98;;
9737;SDS011;4908;47.446;13.900;2024-03-22T13:52:14;0.80;;;0.80;;
9737;SDS011;4908;47.446;13.900;2024-03-22T13:54:41;3.77;;;0.80;;
9737;SDS011;4908;47.446;13.900;2024-03-22T13:57:07;1.37;;;0.70;;
9737;SDS011;4908;47.446;13.900;2024-03-22T13:59:34;0.77;;;0.77;;
9737;SDS011;4908;47.446;13.900;2024-03-22T14:02:01;1.20;;;1.10;;
9737;SDS011;4908;47.446;13.900;2024-03-22T14:04:28;4.43;;;1.20;;
9737;SDS011;4908;47.446;13.900;2024-03-22T14:06:54;2.70;;;2.50;;
9737;SDS011;4908;47.446;13.900;2024-03-22T14:09:23;1.80;;;1.10;;
9737;SDS011;4908;47.446;13.900;2024-03-22T14:11:49;1.27;;;0.70;;
9737;SDS011;4908;47.446;13.900;2024-03-22T14:14:16;1.33;;;1.20;;
9737;SDS011;4908;47.446;13.900;2024-03-22T14:16:43;0.97;;;0.97;;
9737;SDS011;4908;47.446;13.900;2024-03-22T14:19:10;0.67;;;0.67;;
9737;SDS011;4908;47.446;13.900;2024-03-22T14:21:36;1.37;;;0.90;;
9737;SDS011;4908;47.446;13.900;2024-03-22T14:24:04;0.80;;;0.80;;
9737;SDS011;4908;47.446;13.900;2024-03-22T14:26:31;0.90;;;0.90;;
9737;SDS011;4908;47.446;13.900;2024-03-22T14:28:59;1.30;;;0.90;;
9737;SDS011;4908;47.446;13.900;2024-03-22T14:31:25;1.10;;;1.10;;
9737;SDS011;4908;47.446;13.900;2024-03-22T14:33:52;0.90;;;0.90;;
9737;SDS011;4908;47.446;13.900;2024-03-22T14:36:18;0.93;;;0.93;;
9737;SDS011;4908;47.446;13.900;2024-03-22T14:38:46;0.70;;;0.70;;
9737;SDS011;4908;47.446;13.900;2024-03-22T14:41:12;1.57;;;1.30;;
9737;SDS011;4908;47.446;13.900;2024-03-22T14:43:41;3.90;;;1.13;;
9737;SDS011;4908;47.446;13.900;2024-03-22T14:46:07;0.77;;;0.73;;
9737;SDS011;4908;47.446;13.900;2024-03-22T14:48:34;0.90;;;0.90;;
9737;SDS011;4908;47.446;13.900;2024-03-22T14:51:00;1.87;;;1.37;;
9737;SDS011;4908;47.446;13.900;2024-03-22T14:53:27;1.40;;;1.40;;
9737;SDS011;4908;47.446;13.900;2024-03-22T14:55:53;1.17;;;1.10;;